createdAt,value
2023-01-13T00:01:46.755Z,97767.20
2023-01-13T00:05:25.832Z,97764.03
2023-01-13T00:09:02.003Z,97761.72
2023-01-13T00:12:45.781Z,97760.48
2023-01-13T00:16:19.583Z,97761.52
2023-01-13T00:19:55.134Z,97758.88
2023-01-13T00:23:36.533Z,97759.16
2023-01-13T00:27:10.348Z,97762.02
2023-01-13T00:30:47.913Z,97755.55
2023-01-13T00:34:30.328Z,97750.11
2023-01-13T00:38:03.451Z,97752.23
2023-01-13T00:42:00.252Z,97750.54
2023-01-13T00:45:47.260Z,97756.44
2023-01-13T00:49:31.365Z,97762.23
2023-01-13T00:52:55.421Z,97762.41
2023-01-13T00:56:40.043Z,97760.33
2023-01-13T01:00:33.170Z,97754.68
2023-01-13T01:03:56.687Z,97753.05
2023-01-13T01:07:57.025Z,97748.72
2023-01-13T01:11:28.258Z,97750.95
2023-01-13T01:14:59.297Z,97746.42
2023-01-13T01:18:39.518Z,97743.19
2023-01-13T01:22:17.124Z,97739.48
2023-01-13T01:26:16.971Z,97738.66
2023-01-13T01:30:03.827Z,97730.82
2023-01-13T01:33:47.495Z,97722.61
2023-01-13T01:37:13.685Z,97713.59
2023-01-13T01:40:51.252Z,97706.05
2023-01-13T01:44:42.605Z,97703.60
2023-01-13T01:48:08.839Z,97705.63
2023-01-13T01:52:03.776Z,97700.30
2023-01-13T01:55:34.988Z,97695.48
2023-01-13T01:59:07.182Z,97696.10
2023-01-13T02:03:03.411Z,97691.17
2023-01-13T02:06:29.884Z,97692.48
2023-01-13T02:10:11.917Z,97689.39
2023-01-13T02:13:42.284Z,97677.29
2023-01-13T02:18:16.253Z,97678.27
2023-01-13T02:22:13.888Z,97671.33
2023-01-13T02:25:58.685Z,97667.95
2023-01-13T02:29:53.211Z,97658.71
2023-01-13T02:33:31.400Z,97657.33
2023-01-13T02:37:31.700Z,97656.31
2023-01-13T02:42:23.902Z,97651.63
2023-01-13T02:46:33.591Z,97649.23
2023-01-13T02:50:22.781Z,97645.88
2023-01-13T02:54:21.247Z,97643.41
2023-01-13T02:58:08.779Z,97642.88
2023-01-13T03:01:32.992Z,97642.70
2023-01-13T03:05:31.705Z,97630.42
2023-01-13T03:09:04.846Z,97625.40
2023-01-13T03:12:54.475Z,97621.23
2023-01-13T03:16:46.194Z,97630.44
2023-01-13T03:20:38.778Z,97626.59
2023-01-13T03:24:34.740Z,97624.66
2023-01-13T03:28:10.930Z,97622.56
2023-01-13T03:32:01.059Z,97621.43
2023-01-13T03:35:52.616Z,97616.34
2023-01-13T03:39:42.225Z,97620.98
2023-01-13T03:44:14.287Z,97618.30
2023-01-13T03:47:49.302Z,97611.75
2023-01-13T03:51:19.584Z,97609.34
2023-01-13T03:55:04.169Z,97607.38
2023-01-13T03:58:47.979Z,97614.15
2023-01-13T04:02:47.818Z,97618.80
2023-01-13T04:06:36.191Z,97610.53
2023-01-13T04:10:06.919Z,97614.21
2023-01-13T04:13:41.925Z,97614.15
2023-01-13T04:17:17.275Z,97611.13
2023-01-13T04:20:57.786Z,97610.09
2023-01-13T04:24:32.179Z,97604.94
2023-01-13T04:28:11.651Z,97610.32
2023-01-13T04:32:07.384Z,97617.84
2023-01-13T04:35:32.477Z,97622.51
2023-01-13T04:39:29.137Z,97620.29
2023-01-13T04:43:14.105Z,97617.23
2023-01-13T04:46:38.311Z,97611.30
2023-01-13T04:50:19.682Z,97609.88
2023-01-13T04:53:54.465Z,97599.12
2023-01-13T04:57:33.382Z,97594.92
2023-01-13T05:01:28.622Z,97594.11
2023-01-13T05:04:53.181Z,97591.25
2023-01-13T05:08:51.436Z,97597.10
2023-01-13T05:12:35.093Z,97595.54
2023-01-13T05:16:37.495Z,97599.60
2023-01-13T05:20:04.144Z,97606.55
2023-01-13T05:24:15.138Z,97608.22
2023-01-13T05:27:39.895Z,97608.36
2023-01-13T05:31:38.202Z,97605.41
2023-01-13T05:35:05.168Z,97604.98
2023-01-13T05:39:00.775Z,97598.60
2023-01-13T05:42:45.377Z,97598.14
2023-01-13T05:46:29.216Z,97600.20
2023-01-13T05:49:53.736Z,97604.36
2023-01-13T05:53:33.443Z,97609.67
2023-01-13T05:57:27.972Z,97603.02
2023-01-13T06:00:51.723Z,97597.21
2023-01-13T06:04:52.522Z,97600.13
2023-01-13T06:08:36.930Z,97602.48
2023-01-13T06:12:24.528Z,97604.50
2023-01-13T06:15:49.945Z,97603.49
2023-01-13T06:19:45.059Z,97611.50
2023-01-13T06:23:28.413Z,97619.08
2023-01-13T06:26:54.450Z,97617.78
2023-01-13T06:30:41.192Z,97613.32
2023-01-13T06:34:27.292Z,97617.88
2023-01-13T06:38:16.961Z,97619.98
2023-01-13T06:42:02.311Z,97615.33
2023-01-13T06:45:30.410Z,97625.72
2023-01-13T06:49:08.376Z,97625.86
2023-01-13T06:53:02.925Z,97627.61
2023-01-13T06:56:29.692Z,97625.08
2023-01-13T07:00:24.985Z,97617.73
2023-01-13T07:04:07.286Z,97619.77
2023-01-13T07:07:50.313Z,97614.48
2023-01-13T07:11:32.899Z,97610.56
2023-01-13T07:15:15.085Z,97612.94
2023-01-13T07:18:43.996Z,97617.20
2023-01-13T07:22:38.627Z,97617.19
2023-01-13T07:26:21.306Z,97621.45
2023-01-13T07:29:47.250Z,97622.19
2023-01-13T07:33:41.573Z,97620.92
2023-01-13T07:37:07.313Z,97615.54
2023-01-13T07:40:44.464Z,97617.85
2023-01-13T07:44:22.162Z,97623.98
2023-01-13T07:48:18.779Z,97626.55
2023-01-13T07:51:44.336Z,97635.41
2023-01-13T07:55:21.345Z,97631.41
2023-01-13T07:59:20.247Z,97628.27
2023-01-13T08:03:03.318Z,97632.27
2023-01-13T08:06:31.365Z,97631.28
2023-01-13T08:10:06.972Z,97624.16
2023-01-13T08:13:44.995Z,97629.08
2023-01-13T08:17:23.691Z,97631.52
2023-01-13T08:21:08.025Z,97636.34
2023-01-13T08:24:39.694Z,97632.15
2023-01-13T08:28:33.444Z,97622.05
2023-01-13T08:32:20.225Z,97628.77
2023-01-13T08:35:44.284Z,97631.30
2023-01-13T08:39:43.053Z,97636.84
2023-01-13T08:43:26.162Z,97636.27
2023-01-13T08:47:11.378Z,97638.02
2023-01-13T08:51:01.554Z,97639.75
2023-01-13T08:54:27.219Z,97635.45
2023-01-13T08:58:14.592Z,97631.25
2023-01-13T09:01:42.834Z,97630.05
2023-01-13T09:05:19.531Z,97635.20
2023-01-13T09:09:16.930Z,97639.85
2023-01-13T09:13:11.626Z,97643.29
2023-01-13T09:16:57.244Z,97637.42
2023-01-13T09:20:22.104Z,97636.20
2023-01-13T09:24:19.614Z,97633.53
2023-01-13T09:27:45.975Z,97626.92
2023-01-13T09:31:44.627Z,97620.70
2023-01-13T09:35:27.108Z,97616.41
2023-01-13T09:39:12.161Z,97615.11
2023-01-13T09:42:57.928Z,97611.11
2023-01-13T09:46:49.527Z,97600.98
2023-01-13T09:50:16.846Z,97594.73
2023-01-13T09:54:28.284Z,97594.11
2023-01-13T09:57:51.902Z,97588.45
2023-01-13T10:01:57.088Z,97586.06
2023-01-13T10:05:50.188Z,97586.35
2023-01-13T10:09:52.790Z,97589.05
2023-01-13T10:13:33.355Z,97591.66
2023-01-13T10:17:28.427Z,97591.54
2023-01-13T10:21:37.209Z,97593.62
2023-01-13T10:25:23.277Z,97588.23
2023-01-13T10:28:57.037Z,97583.13
2023-01-13T10:32:55.214Z,97579.67
2023-01-13T10:36:40.621Z,97569.36
2023-01-13T10:40:11.425Z,97570.48
2023-01-13T10:44:13.875Z,97564.99
2023-01-13T10:47:42.920Z,97555.05
2023-01-13T10:51:27.685Z,97554.89
2023-01-13T10:55:28.765Z,97546.92
2023-01-13T10:58:54.528Z,97543.58
2023-01-13T11:02:39.429Z,97535.75
2023-01-13T11:06:33.754Z,97533.09
2023-01-13T11:10:09.657Z,97533.20
2023-01-13T11:14:01.968Z,97535.76
2023-01-13T11:17:47.431Z,97539.94
2023-01-13T11:21:56.692Z,97534.76
2023-01-13T11:25:41.914Z,97540.52
2023-01-13T11:29:24.362Z,97543.23
2023-01-13T11:33:10.092Z,97541.29
2023-01-13T11:36:41.847Z,97544.33
2023-01-13T11:40:27.467Z,97539.77
2023-01-13T11:44:01.382Z,97538.08
2023-01-13T11:47:33.503Z,97531.55
2023-01-13T11:51:46.752Z,97525.05
2023-01-13T11:55:37.706Z,97526.36
2023-01-13T11:59:25.132Z,97525.27
2023-01-13T12:03:19.052Z,97526.23
2023-01-13T12:06:49.379Z,97518.63
2023-01-13T12:10:56.432Z,97510.86
2023-01-13T12:15:02.614Z,97511.41
2023-01-13T12:18:59.345Z,97507.81
2023-01-13T12:22:31.998Z,97498.20
2023-01-13T12:26:15.372Z,97497.38
2023-01-13T12:30:10.183Z,97494.30
2023-01-13T12:34:01.119Z,97498.50
2023-01-13T12:37:44.962Z,97496.79
2023-01-13T12:41:40.307Z,97495.52
2023-01-13T12:45:28.832Z,97500.89
2023-01-13T12:49:20.120Z,97503.27
2023-01-13T12:53:28.964Z,97511.48
2023-01-13T12:56:55.851Z,97519.94
2023-01-13T13:00:39.459Z,97523.70
2023-01-13T13:04:10.620Z,97527.66
2023-01-13T13:08:22.921Z,97531.50
2023-01-13T13:12:00.967Z,97530.15
2023-01-13T13:15:49.051Z,97529.98
2023-01-13T13:19:34.247Z,97530.64
2023-01-13T13:22:58.013Z,97532.39
2023-01-13T13:26:45.636Z,97536.10
2023-01-13T13:30:18.222Z,97536.70
2023-01-13T13:34:18.596Z,97538.66
2023-01-13T13:38:21.895Z,97535.98
2023-01-13T13:42:30.525Z,97530.56
2023-01-13T13:46:16.767Z,97528.94
2023-01-13T13:50:19.016Z,97529.83
2023-01-13T13:53:43.918Z,97534.27
2023-01-13T13:57:45.534Z,97533.60
2023-01-13T14:01:30.844Z,97534.90
2023-01-13T14:05:23.477Z,97536.15
2023-01-13T14:09:17.240Z,97535.48
2023-01-13T14:13:18.145Z,97533.85
2023-01-13T14:17:01.125Z,97530.31
2023-01-13T14:20:29.161Z,97533.96
2023-01-13T14:24:16.414Z,97532.42
2023-01-13T14:27:46.809Z,97538.16
2023-01-13T14:31:20.332Z,97534.77
2023-01-13T14:34:57.933Z,97527.60
2023-01-13T14:38:34.962Z,97523.38
2023-01-13T14:42:16.414Z,97527.45
2023-01-13T14:45:58.524Z,97529.65
2023-01-13T14:49:34.029Z,97542.45
2023-01-13T14:53:46.970Z,97553.07
2023-01-13T14:57:32.580Z,97550.23
2023-01-13T15:01:35.694Z,97549.71
2023-01-13T15:05:23.303Z,97553.46
2023-01-13T15:08:50.563Z,97557.73
2023-01-13T15:12:40.071Z,97562.08
2023-01-13T15:16:16.820Z,97561.74
2023-01-13T15:20:12.256Z,97563.02
2023-01-13T15:23:40.045Z,97562.87
2023-01-13T15:27:23.647Z,97558.23
2023-01-13T15:31:13.717Z,97562.58
2023-01-13T15:34:39.886Z,97575.34
2023-01-13T15:38:39.108Z,97577.11
2023-01-13T15:42:41.165Z,97577.67
2023-01-13T15:46:39.058Z,97579.16
2023-01-13T15:50:04.569Z,97572.33
2023-01-13T15:53:42.255Z,97574.95
2023-01-13T15:57:29.183Z,97580.13
2023-01-13T16:00:56.118Z,97581.79
2023-01-13T16:04:33.534Z,97580.58
2023-01-13T16:08:15.952Z,97585.08
2023-01-13T16:11:50.779Z,97589.23
2023-01-13T16:15:26.445Z,97596.59
2023-01-13T16:19:04.139Z,97595.77
2023-01-13T16:22:42.008Z,97593.02
2023-01-13T16:26:39.603Z,97597.38
2023-01-13T16:30:04.286Z,97597.77
2023-01-13T16:33:43.138Z,97594.77
2023-01-13T16:37:25.609Z,97598.56
2023-01-13T16:41:17.135Z,97603.04
2023-01-13T16:44:43.107Z,97611.30
2023-01-13T16:48:22.338Z,97611.34
2023-01-13T16:52:14.992Z,97610.82
2023-01-13T16:55:42.087Z,97616.88
2023-01-13T16:59:37.357Z,97615.73
2023-01-13T17:03:20.628Z,97614.87
2023-01-13T17:07:09.766Z,97616.52
2023-01-13T17:10:35.076Z,97614.26
2023-01-13T17:14:32.699Z,97616.67
2023-01-13T17:17:59.196Z,97619.09
2023-01-13T17:21:36.212Z,97621.48
2023-01-13T17:25:13.411Z,97625.40
2023-01-13T17:29:15.265Z,97625.30
2023-01-13T17:32:40.073Z,97624.02
2023-01-13T17:36:18.195Z,97630.55
2023-01-13T17:40:14.393Z,97631.44
2023-01-13T17:43:38.355Z,97634.06
2023-01-13T17:47:16.987Z,97635.09
2023-01-13T17:50:55.220Z,97640.77
2023-01-13T17:54:54.137Z,97641.60
2023-01-13T17:58:39.025Z,97643.33
2023-01-13T18:02:05.270Z,97643.98
2023-01-13T18:05:42.635Z,97643.30
2023-01-13T18:09:37.720Z,97644.34
2023-01-13T18:13:21.880Z,97648.86
2023-01-13T18:17:05.890Z,97662.46
2023-01-13T18:21:07.221Z,97672.08
2023-01-13T18:25:08.545Z,97687.11
2023-01-13T18:28:32.710Z,97695.82
2023-01-13T18:32:10.437Z,97697.19
2023-01-13T18:35:48.832Z,97692.05
2023-01-13T18:39:28.203Z,97693.54
2023-01-13T18:43:03.242Z,97688.92
2023-01-13T18:46:41.868Z,97684.63
2023-01-13T18:50:21.242Z,97674.98
2023-01-13T18:54:20.952Z,97663.63
2023-01-13T18:58:05.305Z,97677.78
2023-01-13T19:01:31.802Z,97687.77
2023-01-13T19:05:09.975Z,97696.59
2023-01-13T19:08:45.868Z,97699.02
2023-01-13T19:12:26.116Z,97693.66
2023-01-13T19:16:22.985Z,97703.71
2023-01-13T19:19:52.114Z,97713.35
2023-01-13T19:23:46.660Z,97718.76
2023-01-13T19:27:14.586Z,97706.61
2023-01-13T19:30:52.675Z,97708.08
2023-01-13T19:34:26.137Z,97704.11
2023-01-13T19:38:25.111Z,97714.95
2023-01-13T19:42:31.440Z,97721.96
2023-01-13T19:45:55.208Z,97728.49
2023-01-13T19:49:33.901Z,97735.73
2023-01-13T19:53:31.421Z,97734.98
2023-01-13T19:57:01.037Z,97734.52
2023-01-13T20:00:56.725Z,97741.10
2023-01-13T20:04:29.023Z,97740.23
2023-01-13T20:07:58.345Z,97739.41
2023-01-13T20:11:36.934Z,97738.91
2023-01-13T20:15:14.747Z,97740.66
2023-01-13T20:18:55.120Z,97743.23
2023-01-13T20:22:29.885Z,97740.42
2023-01-13T20:26:08.335Z,97740.73
2023-01-13T20:30:04.915Z,97751.39
2023-01-13T20:33:50.897Z,97764.30
2023-01-13T20:37:15.804Z,97770.26
2023-01-13T20:41:00.112Z,97772.69
2023-01-13T20:44:30.904Z,97778.28
2023-01-13T20:48:31.315Z,97780.02
2023-01-13T20:51:58.330Z,97783.33
2023-01-13T20:55:52.938Z,97787.53
2023-01-13T20:59:40.546Z,97794.55
2023-01-13T21:03:12.043Z,97801.59
2023-01-13T21:06:46.222Z,97802.12
2023-01-13T21:10:46.706Z,97802.02
2023-01-13T21:14:36.182Z,97804.86
2023-01-13T21:18:22.316Z,97805.84
2023-01-13T21:21:47.121Z,97812.48
2023-01-13T21:25:24.732Z,97817.23
2023-01-13T21:29:22.173Z,97819.70
2023-01-13T21:33:05.932Z,97825.40
2023-01-13T21:36:32.391Z,97834.15
2023-01-13T21:40:10.179Z,97840.55
2023-01-13T21:44:23.030Z,97839.98
2023-01-13T21:48:13.244Z,97839.16
2023-01-13T21:51:39.763Z,97841.98
2023-01-13T21:55:25.231Z,97843.08
2023-01-13T21:58:53.627Z,97844.50
2023-01-13T22:02:35.986Z,97846.84
2023-01-13T22:06:10.416Z,97844.69
2023-01-13T22:10:08.306Z,97854.11
2023-01-13T22:14:09.785Z,97855.14
2023-01-13T22:17:34.291Z,97860.95
2023-01-13T22:21:13.178Z,97863.54
2023-01-13T22:25:12.381Z,97864.49
2023-01-13T22:28:43.562Z,97868.02
2023-01-13T22:32:16.990Z,97868.67
2023-01-13T22:36:14.934Z,97867.04
2023-01-13T22:39:41.047Z,97865.58
2023-01-13T22:43:36.949Z,97870.15
2023-01-13T22:47:19.963Z,97873.79
2023-01-13T22:50:50.278Z,97874.20
2023-01-13T22:54:23.002Z,97880.91
2023-01-13T22:58:02.448Z,97883.92
2023-01-13T23:01:39.303Z,97886.57
2023-01-13T23:05:16.040Z,97885.40
2023-01-13T23:08:56.007Z,97887.78
2023-01-13T23:12:31.469Z,97894.39
2023-01-13T23:16:12.174Z,97893.80
2023-01-13T23:55:57.775Z,97915.71
2023-01-13T23:59:31.657Z,97919.83
